createdAt,value
2023-03-31T00:00:12.541Z,0.00
2023-03-31T00:01:13.238Z,0.00
2023-03-31T00:02:12.958Z,0.00
2023-03-31T00:03:13.214Z,0.00
2023-03-31T00:04:14.525Z,0.00
2023-03-31T00:05:13.499Z,0.00
2023-03-31T00:06:13.685Z,0.00
2023-03-31T00:07:13.888Z,0.00
2023-03-31T00:08:15.244Z,0.00
2023-03-31T00:09:14.781Z,0.00
2023-03-31T00:10:17.866Z,0.00
2023-03-31T00:11:15.505Z,0.00
2023-03-31T00:12:14.668Z,0.00
2023-03-31T00:13:14.835Z,0.00
2023-03-31T00:14:15.290Z,0.00
2023-03-31T00:15:15.169Z,0.00
2023-03-31T00:16:16.284Z,0.00
2023-03-31T00:17:16.183Z,0.00
2023-03-31T00:18:16.261Z,0.00
2023-03-31T00:19:15.933Z,0.00
2023-03-31T00:20:16.073Z,0.00
2023-03-31T00:21:16.745Z,0.00
2023-03-31T00:22:16.416Z,0.00
2023-03-31T00:23:16.587Z,0.00
2023-03-31T00:24:17.751Z,0.00
2023-03-31T00:25:16.899Z,0.00
2023-03-31T00:26:17.068Z,0.00
2023-03-31T00:27:17.229Z,0.00
2023-03-31T00:28:17.396Z,0.00
2023-03-31T00:29:18.244Z,0.00
2023-03-31T00:30:17.782Z,0.00
2023-03-31T00:31:18.020Z,0.00
2023-03-31T00:32:18.135Z,0.00
2023-03-31T00:33:18.370Z,0.00
2023-03-31T00:34:19.258Z,0.00
2023-03-31T00:35:18.713Z,0.00
2023-03-31T00:36:18.930Z,0.00
2023-03-31T00:37:19.747Z,0.00
2023-03-31T00:38:19.166Z,0.00
2023-03-31T00:39:19.364Z,0.00
2023-03-31T00:40:19.798Z,0.00
2023-03-31T00:41:20.245Z,0.00
2023-03-31T00:42:19.894Z,0.00
2023-03-31T00:43:20.056Z,0.00
2023-03-31T00:44:21.114Z,0.00
2023-03-31T00:45:20.383Z,0.00
2023-03-31T00:46:20.662Z,0.00
2023-03-31T00:47:21.747Z,0.00
2023-03-31T00:48:21.746Z,0.00
2023-03-31T00:49:21.045Z,0.00
2023-03-31T00:50:21.221Z,0.00
2023-03-31T00:51:22.298Z,0.00
2023-03-31T00:52:21.588Z,0.00
2023-03-31T00:53:21.752Z,0.00
2023-03-31T00:54:21.910Z,0.00
2023-03-31T00:55:22.068Z,0.00
2023-03-31T00:56:22.787Z,0.00
2023-03-31T00:57:22.502Z,0.00
2023-03-31T00:58:22.584Z,0.00
2023-03-31T00:59:23.751Z,0.00
2023-03-31T01:00:22.876Z,0.00
2023-03-31T01:01:23.821Z,0.00
2023-03-31T01:02:23.233Z,0.00
2023-03-31T01:03:23.434Z,0.00
2023-03-31T01:04:23.635Z,0.00
2023-03-31T01:05:23.811Z,0.00
2023-03-31T01:06:23.990Z,0.00
2023-03-31T01:07:24.793Z,0.00
2023-03-31T01:08:24.320Z,0.00
2023-03-31T01:09:24.514Z,0.00
2023-03-31T01:10:24.701Z,0.00
2023-03-31T01:11:24.881Z,0.00
2023-03-31T01:12:25.034Z,0.00
2023-03-31T01:13:25.218Z,0.00
2023-03-31T01:14:26.759Z,0.00
2023-03-31T01:15:26.294Z,0.00
2023-03-31T01:16:26.708Z,0.00
2023-03-31T01:17:26.147Z,0.00
2023-03-31T01:18:26.283Z,0.00
2023-03-31T01:19:26.369Z,0.00
2023-03-31T01:20:26.529Z,0.00
2023-03-31T01:21:26.698Z,0.00
2023-03-31T01:22:26.910Z,0.00
2023-03-31T01:23:27.764Z,0.00
2023-03-31T01:24:27.795Z,0.00
2023-03-31T01:25:28.265Z,0.00
2023-03-31T01:26:27.677Z,0.00
2023-03-31T01:27:27.869Z,0.00
2023-03-31T01:28:28.059Z,0.00
2023-03-31T01:29:29.233Z,0.00
2023-03-31T01:30:28.379Z,0.00
2023-03-31T01:31:28.618Z,0.00
2023-03-31T01:32:28.750Z,0.00
2023-03-31T01:33:28.864Z,0.00
2023-03-31T01:34:30.629Z,0.00
2023-03-31T01:35:29.302Z,0.00
2023-03-31T01:36:30.263Z,0.00
2023-03-31T01:37:29.560Z,0.00
2023-03-31T01:38:31.265Z,0.00
2023-03-31T01:39:29.891Z,0.00
2023-03-31T01:40:31.070Z,0.00
2023-03-31T01:41:30.223Z,0.00
2023-03-31T01:42:30.393Z,0.00
2023-03-31T01:43:30.544Z,0.00
2023-03-31T01:44:30.699Z,0.00
2023-03-31T01:45:30.882Z,0.00
2023-03-31T01:46:31.080Z,0.00
2023-03-31T01:47:31.795Z,0.00
2023-03-31T01:48:32.300Z,0.00
2023-03-31T01:49:31.583Z,0.00
2023-03-31T01:50:31.742Z,0.00
2023-03-31T01:51:31.922Z,0.00
2023-03-31T01:52:32.082Z,0.00
2023-03-31T01:53:32.257Z,0.00
2023-03-31T01:54:32.450Z,0.00
2023-03-31T01:55:32.629Z,0.00
2023-03-31T01:56:33.786Z,0.00
2023-03-31T01:57:34.787Z,0.00
2023-03-31T01:58:33.804Z,0.00
2023-03-31T01:59:34.308Z,0.00
2023-03-31T02:00:33.687Z,0.00
2023-03-31T02:01:35.602Z,0.00
2023-03-31T02:02:34.360Z,0.00
2023-03-31T02:03:34.422Z,0.00
2023-03-31T02:04:34.397Z,0.00
2023-03-31T02:05:34.563Z,0.00
2023-03-31T02:06:34.727Z,0.00
2023-03-31T02:07:34.930Z,0.00
2023-03-31T02:08:35.128Z,0.00
2023-03-31T02:09:35.303Z,0.00
2023-03-31T02:10:35.467Z,0.00
2023-03-31T02:11:35.635Z,0.00
2023-03-31T02:12:35.791Z,0.00
2023-03-31T02:13:37.285Z,0.00
2023-03-31T02:14:36.169Z,0.00
2023-03-31T02:15:36.334Z,0.00
2023-03-31T02:16:36.520Z,0.00
2023-03-31T02:17:36.693Z,0.00
2023-03-31T02:18:36.781Z,0.00
2023-03-31T02:19:36.969Z,0.00
2023-03-31T02:20:37.171Z,0.00
2023-03-31T02:21:37.341Z,0.00
2023-03-31T02:22:37.539Z,0.00
2023-03-31T02:23:37.831Z,0.00
2023-03-31T02:24:37.858Z,0.00
2023-03-31T02:25:39.722Z,0.00
2023-03-31T02:26:38.221Z,0.00
2023-03-31T02:27:38.376Z,0.00
2023-03-31T02:28:38.573Z,0.00
2023-03-31T02:29:38.763Z,0.00
2023-03-31T02:30:38.947Z,0.00
2023-03-31T02:31:40.808Z,0.00
2023-03-31T02:32:39.334Z,0.00
2023-03-31T02:33:39.532Z,0.00
2023-03-31T02:34:39.699Z,0.00
2023-03-31T02:35:40.366Z,0.00
2023-03-31T02:36:40.782Z,0.00
2023-03-31T02:37:40.176Z,0.00
2023-03-31T02:38:40.323Z,0.00
2023-03-31T02:39:43.275Z,0.00
2023-03-31T02:40:40.679Z,0.00
2023-03-31T02:41:40.897Z,0.00
2023-03-31T02:42:41.332Z,0.00
2023-03-31T02:43:41.224Z,0.00
2023-03-31T02:44:41.414Z,0.00
2023-03-31T02:45:42.894Z,0.00
2023-03-31T02:46:41.716Z,0.00
2023-03-31T02:47:41.975Z,0.00
2023-03-31T02:48:42.036Z,0.00
2023-03-31T02:49:43.819Z,0.00
2023-03-31T02:50:42.310Z,0.00
2023-03-31T02:51:42.457Z,0.00
2023-03-31T02:52:42.632Z,0.00
2023-03-31T02:53:43.780Z,0.00
2023-03-31T02:54:42.929Z,0.00
2023-03-31T02:55:43.083Z,0.00
2023-03-31T02:56:43.361Z,0.00
2023-03-31T02:57:43.482Z,0.00
2023-03-31T02:58:43.675Z,0.00
2023-03-31T02:59:43.846Z,0.00
2023-03-31T03:00:44.041Z,0.00
2023-03-31T03:01:44.913Z,0.00
2023-03-31T03:02:44.597Z,0.00
2023-03-31T03:03:44.663Z,0.00
2023-03-31T03:04:45.790Z,0.00
2023-03-31T03:05:45.943Z,0.00
2023-03-31T03:06:45.275Z,0.00
2023-03-31T03:07:45.484Z,0.00
2023-03-31T03:08:46.786Z,0.00
2023-03-31T03:09:45.804Z,0.00
2023-03-31T03:10:45.964Z,0.00
2023-03-31T03:11:46.152Z,0.00
2023-03-31T03:12:46.344Z,0.00
2023-03-31T03:13:46.538Z,0.00
2023-03-31T03:14:46.732Z,0.00
2023-03-31T03:15:48.782Z,0.00
2023-03-31T03:16:47.048Z,0.00
2023-03-31T03:17:47.310Z,0.00
2023-03-31T03:18:48.289Z,0.00
2023-03-31T03:19:48.165Z,0.00
2023-03-31T03:20:47.836Z,0.00
2023-03-31T03:21:47.995Z,0.00
2023-03-31T03:22:48.147Z,0.00
2023-03-31T03:23:48.314Z,0.00
2023-03-31T03:24:48.863Z,0.00
2023-03-31T03:25:48.745Z,0.00
2023-03-31T03:26:48.904Z,0.00
2023-03-31T03:27:49.843Z,0.00
2023-03-31T03:28:49.213Z,0.00
2023-03-31T03:29:49.858Z,0.00
2023-03-31T03:30:49.665Z,0.00
2023-03-31T03:31:50.799Z,0.00
2023-03-31T03:32:50.080Z,0.00
2023-03-31T03:33:50.241Z,0.00
2023-03-31T03:34:50.400Z,0.00
2023-03-31T03:35:50.611Z,0.00
2023-03-31T03:36:51.339Z,0.00
2023-03-31T03:37:51.002Z,0.00
2023-03-31T03:38:51.213Z,0.00
2023-03-31T03:39:51.341Z,0.00
2023-03-31T03:40:51.486Z,0.00
2023-03-31T03:41:51.694Z,0.00
2023-03-31T03:42:51.880Z,0.00
2023-03-31T03:43:52.800Z,0.00
2023-03-31T03:44:52.833Z,0.00
2023-03-31T03:45:52.409Z,0.00
2023-03-31T03:46:52.484Z,0.00
2023-03-31T03:47:52.699Z,0.00
2023-03-31T03:48:54.302Z,0.00
2023-03-31T03:49:53.044Z,0.00
2023-03-31T03:50:53.182Z,0.00
2023-03-31T03:51:53.336Z,0.00
2023-03-31T03:52:53.490Z,0.00
2023-03-31T03:53:53.632Z,0.00
2023-03-31T03:54:53.784Z,0.00
2023-03-31T03:55:53.953Z,0.00
2023-03-31T03:56:54.836Z,0.00
2023-03-31T03:57:54.262Z,0.00
2023-03-31T03:58:55.297Z,0.00
2023-03-31T03:59:54.545Z,0.00
2023-03-31T04:00:54.701Z,0.00
2023-03-31T04:01:54.906Z,0.00
2023-03-31T04:02:55.148Z,0.00
2023-03-31T04:03:55.207Z,0.00
2023-03-31T04:04:55.360Z,0.00
2023-03-31T04:05:56.303Z,0.00
2023-03-31T04:06:56.356Z,0.00
2023-03-31T04:07:55.859Z,0.00
2023-03-31T04:08:56.092Z,0.00
2023-03-31T04:09:56.227Z,0.00
2023-03-31T04:10:57.804Z,0.00
2023-03-31T04:11:56.540Z,0.00
2023-03-31T04:12:57.298Z,0.00
2023-03-31T04:13:57.337Z,0.00
2023-03-31T04:14:56.962Z,0.00
2023-03-31T04:15:57.149Z,0.00
2023-03-31T04:16:58.298Z,0.00
2023-03-31T04:17:57.614Z,0.00
2023-03-31T04:18:57.686Z,0.00
2023-03-31T04:19:57.822Z,0.00
2023-03-31T04:20:57.971Z,0.00
2023-03-31T04:21:58.147Z,0.00
2023-03-31T04:22:58.301Z,0.00
2023-03-31T04:24:00.316Z,0.00
2023-03-31T04:25:00.305Z,0.00
2023-03-31T04:25:58.811Z,0.00
2023-03-31T04:26:59.015Z,0.00
2023-03-31T04:27:59.206Z,0.00
2023-03-31T04:28:59.361Z,0.00
2023-03-31T04:30:00.345Z,0.00
2023-03-31T04:31:00.302Z,0.00
2023-03-31T04:32:01.855Z,0.00
2023-03-31T04:33:00.197Z,0.00
2023-03-31T04:34:00.302Z,0.00
2023-03-31T04:35:00.458Z,0.00
2023-03-31T04:36:00.667Z,0.00
2023-03-31T04:37:00.807Z,0.00
2023-03-31T04:38:00.954Z,0.00
2023-03-31T04:39:01.120Z,0.00
2023-03-31T04:40:01.352Z,0.00
2023-03-31T04:41:01.869Z,0.00
2023-03-31T04:42:01.623Z,0.00
2023-03-31T04:43:01.779Z,0.00
2023-03-31T04:44:01.933Z,0.00
2023-03-31T04:45:02.846Z,0.00
2023-03-31T04:46:02.276Z,0.00
2023-03-31T04:47:02.489Z,0.00
2023-03-31T04:48:04.241Z,0.00
2023-03-31T04:49:03.847Z,0.00
2023-03-31T04:50:04.316Z,0.00
2023-03-31T04:51:03.360Z,4.00
2023-03-31T04:52:03.497Z,0.00
2023-03-31T04:53:04.345Z,4.00
2023-03-31T04:54:03.861Z,0.00
2023-03-31T04:55:04.016Z,4.00
2023-03-31T04:56:04.492Z,4.00
2023-03-31T04:57:04.366Z,4.00
2023-03-31T04:58:04.569Z,8.00
2023-03-31T04:59:04.754Z,4.00
2023-03-31T05:00:04.952Z,8.00
2023-03-31T05:01:05.200Z,8.00
2023-03-31T05:02:05.339Z,8.00
2023-03-31T05:03:05.541Z,8.00
2023-03-31T05:04:05.620Z,4.00
2023-03-31T05:05:07.313Z,8.00
2023-03-31T05:06:06.956Z,8.00
2023-03-31T05:07:06.382Z,12.00
2023-03-31T05:08:06.306Z,12.00
2023-03-31T05:09:07.341Z,12.00
2023-03-31T05:10:06.623Z,12.00
2023-03-31T05:11:06.812Z,20.00
2023-03-31T05:12:06.982Z,20.00
2023-03-31T05:13:07.692Z,24.00
2023-03-31T05:14:07.401Z,28.00
2023-03-31T05:15:08.329Z,32.00
2023-03-31T05:16:08.059Z,32.00
2023-03-31T05:17:07.970Z,32.00
2023-03-31T05:18:08.326Z,32.00
2023-03-31T05:19:08.822Z,32.00
2023-03-31T05:20:09.363Z,40.00
2023-03-31T05:21:10.323Z,44.00
2023-03-31T05:22:08.800Z,44.00
2023-03-31T05:23:08.960Z,48.00
2023-03-31T05:24:09.869Z,52.00
2023-03-31T05:25:10.822Z,52.00
2023-03-31T05:26:11.329Z,60.00
2023-03-31T05:27:10.326Z,64.00
2023-03-31T05:28:09.970Z,68.00
2023-03-31T05:29:10.141Z,72.00
2023-03-31T05:30:10.394Z,76.00
2023-03-31T05:31:10.537Z,68.00
2023-03-31T05:32:10.716Z,64.00
2023-03-31T05:33:10.848Z,60.00
2023-03-31T05:34:11.002Z,60.00
2023-03-31T05:35:12.335Z,64.00
2023-03-31T05:36:13.355Z,72.00
2023-03-31T05:37:11.466Z,88.00
2023-03-31T05:38:12.325Z,112.00
2023-03-31T05:39:12.390Z,140.00
2023-03-31T05:40:12.034Z,168.00
2023-03-31T05:41:12.184Z,196.00
2023-03-31T05:42:12.332Z,212.00
2023-03-31T05:43:12.486Z,216.00
2023-03-31T05:44:12.641Z,224.00
2023-03-31T05:45:12.879Z,248.00
2023-03-31T05:46:13.845Z,280.00
2023-03-31T05:47:14.207Z,308.00
2023-03-31T05:48:13.482Z,324.00
2023-03-31T05:49:14.329Z,324.00
2023-03-31T05:50:14.904Z,304.00
2023-03-31T05:51:15.067Z,288.00
2023-03-31T05:52:14.394Z,292.00
2023-03-31T05:53:14.436Z,320.00
2023-03-31T05:54:14.610Z,364.00
2023-03-31T05:55:14.765Z,420.00
2023-03-31T05:56:14.929Z,468.00
2023-03-31T05:57:15.135Z,508.00
2023-03-31T05:58:15.305Z,540.00
2023-03-31T05:59:15.434Z,564.00
2023-03-31T06:00:15.614Z,592.00
2023-03-31T06:01:18.190Z,624.00
2023-03-31T06:02:16.443Z,664.00
2023-03-31T06:03:17.375Z,708.00
2023-03-31T06:04:16.293Z,764.00
2023-03-31T06:05:17.373Z,828.00
2023-03-31T06:06:16.583Z,852.00
2023-03-31T06:07:16.662Z,860.00
2023-03-31T06:08:16.844Z,860.00
2023-03-31T06:09:17.025Z,836.00
2023-03-31T06:10:18.866Z,792.00
2023-03-31T06:11:17.411Z,752.00
2023-03-31T06:12:17.880Z,716.00
2023-03-31T06:13:17.824Z,692.00
2023-03-31T06:14:18.015Z,684.00
2023-03-31T06:15:18.191Z,676.00
2023-03-31T06:16:18.446Z,668.00
2023-03-31T06:17:19.359Z,656.00
2023-03-31T06:18:19.848Z,632.00
2023-03-31T06:19:18.865Z,612.00
2023-03-31T06:20:27.757Z,568.00
2023-03-31T06:21:21.175Z,524.00
2023-03-31T06:22:20.024Z,504.00
2023-03-31T06:23:19.569Z,504.00
2023-03-31T06:24:19.734Z,512.00
2023-03-31T06:25:19.934Z,524.00
2023-03-31T06:26:20.796Z,552.00
2023-03-31T06:27:20.357Z,572.00
2023-03-31T06:28:20.552Z,588.00
2023-03-31T06:29:20.821Z,584.00
2023-03-31T06:30:21.879Z,576.00
2023-03-31T06:31:21.195Z,592.00
2023-03-31T06:32:21.333Z,608.00
2023-03-31T06:33:22.377Z,604.00
2023-03-31T06:34:21.770Z,580.00
2023-03-31T06:35:23.860Z,528.00
2023-03-31T06:36:22.014Z,488.00
2023-03-31T06:37:22.851Z,472.00
2023-03-31T06:38:22.416Z,492.00
2023-03-31T06:39:22.613Z,532.00
2023-03-31T06:40:22.823Z,580.00
2023-03-31T06:41:23.853Z,624.00
2023-03-31T06:42:23.904Z,636.00
2023-03-31T06:43:23.453Z,688.00
2023-03-31T06:44:23.624Z,744.00
2023-03-31T06:45:23.818Z,796.00
2023-03-31T06:46:24.067Z,840.00
2023-03-31T06:47:24.166Z,872.00
2023-03-31T06:48:24.848Z,892.00
2023-03-31T06:49:24.546Z,912.00
2023-03-31T06:50:24.749Z,928.00
2023-03-31T06:51:26.846Z,932.00
2023-03-31T06:52:25.844Z,932.00
2023-03-31T06:53:25.254Z,928.00
2023-03-31T06:54:26.472Z,924.00
2023-03-31T06:55:25.663Z,912.00
2023-03-31T06:56:25.875Z,900.00
2023-03-31T06:57:26.062Z,888.00
2023-03-31T06:58:27.718Z,852.00
2023-03-31T06:59:26.487Z,820.00
2023-03-31T07:00:26.733Z,804.00
2023-03-31T07:01:27.915Z,796.00
2023-03-31T07:02:27.975Z,788.00
2023-03-31T07:03:27.298Z,760.00
2023-03-31T07:04:28.398Z,744.00
2023-03-31T07:05:27.621Z,724.00
2023-03-31T07:06:27.776Z,712.00
2023-03-31T07:07:27.948Z,720.00
2023-03-31T07:08:28.125Z,744.00
2023-03-31T07:09:28.858Z,780.00
2023-03-31T07:10:29.405Z,828.00
2023-03-31T07:11:28.637Z,884.00
2023-03-31T07:12:28.784Z,920.00
2023-03-31T07:13:28.974Z,944.00
2023-03-31T07:14:29.867Z,956.00
2023-03-31T07:15:30.716Z,980.00
2023-03-31T07:16:30.590Z,976.00
2023-03-31T07:17:29.620Z,1000.00
2023-03-31T07:18:30.144Z,1060.00
2023-03-31T07:19:30.906Z,1148.00
2023-03-31T07:20:30.865Z,1224.00
2023-03-31T07:21:30.390Z,1292.00
2023-03-31T07:22:31.218Z,1332.00
2023-03-31T07:23:31.362Z,1304.00
2023-03-31T07:24:30.884Z,1252.00
2023-03-31T07:25:31.050Z,1192.00
2023-03-31T07:26:31.213Z,1116.00
2023-03-31T07:27:31.387Z,1016.00
2023-03-31T07:28:31.553Z,1004.00
2023-03-31T07:29:31.752Z,980.00
2023-03-31T07:30:32.854Z,964.00
2023-03-31T07:31:32.921Z,972.00
2023-03-31T07:32:32.463Z,1016.00
2023-03-31T07:33:32.570Z,1084.00
2023-03-31T07:34:33.962Z,1156.00
2023-03-31T07:35:32.900Z,1236.00
2023-03-31T07:36:33.726Z,1260.00
2023-03-31T07:37:34.857Z,1244.00
2023-03-31T07:38:34.301Z,1200.00
2023-03-31T07:39:34.595Z,1160.00
2023-03-31T07:40:33.778Z,1108.00
2023-03-31T07:41:34.918Z,1052.00
2023-03-31T07:42:34.098Z,1004.00
2023-03-31T07:43:34.875Z,960.00
2023-03-31T07:44:35.384Z,924.00
2023-03-31T07:45:35.417Z,892.00
2023-03-31T07:46:35.442Z,864.00
2023-03-31T07:47:34.980Z,816.00
2023-03-31T07:48:36.302Z,772.00
2023-03-31T07:49:35.330Z,732.00
2023-03-31T07:50:36.360Z,712.00
2023-03-31T07:51:35.746Z,720.00
2023-03-31T07:52:36.852Z,744.00
2023-03-31T07:53:36.167Z,772.00
2023-03-31T07:54:36.371Z,812.00
2023-03-31T07:55:36.564Z,848.00
2023-03-31T07:56:37.407Z,868.00
2023-03-31T07:57:37.907Z,924.00
2023-03-31T07:58:37.864Z,948.00
2023-03-31T07:59:37.269Z,952.00
2023-03-31T08:00:38.375Z,924.00
2023-03-31T08:01:37.706Z,900.00
2023-03-31T08:02:37.983Z,868.00
2023-03-31T08:03:38.028Z,856.00
2023-03-31T08:04:59.914Z,896.00
2023-03-31T08:05:38.916Z,940.00
2023-03-31T08:06:38.415Z,1008.00
2023-03-31T08:07:38.563Z,1068.00
2023-03-31T08:08:38.726Z,1140.00
2023-03-31T08:09:40.367Z,1208.00
2023-03-31T08:10:39.123Z,1364.00
2023-03-31T08:11:39.913Z,1616.00
2023-03-31T08:12:39.426Z,1908.00
2023-03-31T08:13:40.351Z,2120.00
2023-03-31T08:14:41.515Z,2300.00
2023-03-31T08:15:40.950Z,2496.00
2023-03-31T08:16:40.188Z,2612.00
2023-03-31T08:17:40.874Z,2752.00
2023-03-31T08:18:40.427Z,2968.00
2023-03-31T08:19:40.580Z,3288.00
2023-03-31T08:20:41.378Z,3524.00
2023-03-31T08:21:40.889Z,3608.00
2023-03-31T08:22:41.078Z,3752.00
2023-03-31T08:23:41.735Z,3824.00
2023-03-31T08:24:41.867Z,3668.00
2023-03-31T08:25:43.892Z,3468.00
2023-03-31T08:26:41.620Z,3312.00
2023-03-31T08:27:42.401Z,3236.00
2023-03-31T08:28:42.907Z,3300.00
2023-03-31T08:29:42.213Z,3364.00
2023-03-31T08:30:42.359Z,3428.00
2023-03-31T08:31:42.528Z,3440.00
2023-03-31T08:32:43.365Z,3472.00
2023-03-31T08:33:43.867Z,3540.00
2023-03-31T08:34:43.870Z,3484.00
2023-03-31T08:35:43.325Z,3456.00
2023-03-31T08:36:43.400Z,3596.00
2023-03-31T08:37:43.547Z,3608.00
2023-03-31T08:38:43.711Z,3760.00
2023-03-31T08:39:43.848Z,4056.00
2023-03-31T08:40:44.950Z,4460.00
2023-03-31T08:41:44.234Z,5068.00
2023-03-31T08:42:44.925Z,6208.00
2023-03-31T08:43:45.411Z,7752.00
2023-03-31T08:44:44.682Z,8020.00
2023-03-31T08:45:44.909Z,8892.00
2023-03-31T08:46:45.034Z,8792.00
2023-03-31T08:47:45.210Z,10132.00
2023-03-31T08:48:46.864Z,9940.00
2023-03-31T08:49:45.615Z,10136.00
2023-03-31T08:50:47.445Z,11436.00
2023-03-31T08:51:46.431Z,11824.00
2023-03-31T08:52:46.077Z,11128.00
2023-03-31T08:53:46.274Z,9940.00
2023-03-31T08:54:46.476Z,10400.00
2023-03-31T08:55:46.653Z,9932.00
2023-03-31T08:56:46.899Z,9432.00
2023-03-31T08:57:47.874Z,9396.00
2023-03-31T08:58:47.161Z,12244.00
2023-03-31T08:59:47.343Z,12500.00
2023-03-31T09:00:47.537Z,10568.00
2023-03-31T09:01:55.333Z,9204.00
2023-03-31T09:02:50.797Z,8888.00
2023-03-31T09:03:48.028Z,9100.00
2023-03-31T09:04:48.113Z,9180.00
2023-03-31T09:05:59.269Z,9148.00
2023-03-31T09:06:51.446Z,9188.00
2023-03-31T09:07:50.377Z,9416.00
2023-03-31T09:08:48.879Z,9400.00
2023-03-31T09:09:49.076Z,9516.00
2023-03-31T09:10:49.939Z,8212.00
2023-03-31T09:11:49.459Z,7448.00
2023-03-31T09:12:49.638Z,7156.00
2023-03-31T09:13:49.806Z,6980.00
2023-03-31T09:14:50.440Z,6644.00
2023-03-31T09:15:50.097Z,6504.00
2023-03-31T09:16:50.285Z,6784.00
2023-03-31T09:17:50.491Z,6700.00
2023-03-31T09:18:50.674Z,11392.00
2023-03-31T09:19:51.381Z,11928.00
2023-03-31T09:20:51.073Z,12520.00
2023-03-31T09:21:51.258Z,12576.00
2023-03-31T09:22:52.324Z,10876.00
2023-03-31T09:23:52.571Z,10348.00
2023-03-31T09:24:51.828Z,10976.00
2023-03-31T09:25:52.020Z,9560.00
2023-03-31T09:26:52.208Z,8428.00
2023-03-31T09:27:53.387Z,6192.00
2023-03-31T09:28:52.527Z,5568.00
2023-03-31T09:29:52.728Z,5516.00
2023-03-31T09:30:52.905Z,5080.00
2023-03-31T09:31:53.120Z,4920.00
2023-03-31T09:32:55.921Z,4792.00
2023-03-31T09:33:53.552Z,4884.00
2023-03-31T09:34:53.741Z,5012.00
2023-03-31T09:35:54.925Z,5084.00
2023-03-31T09:36:54.123Z,5028.00
2023-03-31T09:37:54.508Z,4892.00
2023-03-31T09:38:55.425Z,4948.00
2023-03-31T09:39:55.395Z,4800.00
2023-03-31T09:40:54.818Z,4644.00
2023-03-31T09:41:56.923Z,4612.00
2023-03-31T09:42:56.391Z,4392.00
2023-03-31T09:43:56.396Z,4148.00
2023-03-31T09:44:57.395Z,3900.00
2023-03-31T09:46:08.520Z,4072.00
2023-03-31T09:46:57.970Z,5712.00
2023-03-31T09:47:56.996Z,5828.00
2023-03-31T09:48:56.940Z,5924.00
2023-03-31T09:49:57.400Z,5540.00
2023-03-31T09:50:56.682Z,5292.00
2023-03-31T09:51:56.834Z,6124.00
2023-03-31T09:52:56.960Z,11916.00
2023-03-31T09:53:57.124Z,14004.00
2023-03-31T09:54:57.265Z,12964.00
2023-03-31T09:55:57.423Z,11064.00
2023-03-31T09:56:57.621Z,10424.00
2023-03-31T09:57:58.899Z,12028.00
2023-03-31T09:58:58.902Z,11500.00
2023-03-31T09:59:58.024Z,12068.00
2023-03-31T10:00:58.185Z,11052.00
2023-03-31T10:01:59.065Z,11468.00
2023-03-31T10:02:58.485Z,11920.00
2023-03-31T10:03:59.420Z,13452.00
2023-03-31T10:04:58.804Z,13180.00
2023-03-31T10:05:59.771Z,12504.00
2023-03-31T10:06:59.136Z,10980.00
2023-03-31T10:07:59.945Z,12768.00
2023-03-31T10:08:59.466Z,12128.00
2023-03-31T10:09:59.596Z,11276.00
2023-03-31T10:11:00.399Z,11044.00
2023-03-31T10:11:59.946Z,10604.00
2023-03-31T10:13:00.148Z,9868.00
2023-03-31T10:14:02.413Z,10744.00
2023-03-31T10:15:00.903Z,11244.00
2023-03-31T10:16:00.584Z,10476.00
2023-03-31T10:17:00.955Z,10096.00
2023-03-31T10:18:01.948Z,9768.00
2023-03-31T10:19:02.348Z,9680.00
2023-03-31T10:20:01.338Z,9436.00
2023-03-31T10:21:01.961Z,9024.00
2023-03-31T10:22:01.755Z,8644.00
2023-03-31T10:23:02.769Z,8532.00
2023-03-31T10:24:02.154Z,7932.00
2023-03-31T10:25:02.324Z,7272.00
2023-03-31T10:26:02.540Z,6520.00
2023-03-31T10:27:02.617Z,6024.00
2023-03-31T10:28:02.777Z,5316.00
2023-03-31T10:29:04.936Z,4408.00
2023-03-31T10:30:03.155Z,3496.00
2023-03-31T10:31:04.103Z,3312.00
2023-03-31T10:32:03.554Z,3552.00
2023-03-31T10:33:15.217Z,4196.00
2023-03-31T10:34:05.915Z,5112.00
2023-03-31T10:35:04.069Z,5928.00
2023-03-31T10:36:04.239Z,6516.00
2023-03-31T10:37:04.475Z,7080.00
2023-03-31T10:38:06.070Z,7648.00
2023-03-31T10:39:05.757Z,8184.00
2023-03-31T10:40:05.010Z,8280.00
2023-03-31T10:41:06.092Z,8564.00
2023-03-31T10:42:06.414Z,8588.00
2023-03-31T10:43:05.541Z,8504.00
2023-03-31T10:44:07.911Z,8312.00
2023-03-31T10:45:06.408Z,8056.00
2023-03-31T10:46:06.100Z,7888.00
2023-03-31T10:47:06.330Z,7676.00
2023-03-31T10:48:06.478Z,7496.00
2023-03-31T10:49:06.652Z,7292.00
2023-03-31T10:50:06.777Z,7144.00
2023-03-31T10:51:07.084Z,6952.00
2023-03-31T10:52:07.102Z,6868.00
2023-03-31T10:53:07.957Z,6832.00
2023-03-31T10:54:07.473Z,6680.00
2023-03-31T10:55:07.618Z,6560.00
2023-03-31T10:56:07.761Z,6328.00
2023-03-31T10:57:08.476Z,6176.00
2023-03-31T10:58:08.908Z,6036.00
2023-03-31T10:59:08.322Z,6032.00
2023-03-31T11:00:08.469Z,6012.00
2023-03-31T11:01:08.661Z,6084.00
2023-03-31T11:02:09.420Z,6156.00
2023-03-31T11:03:09.984Z,6152.00
2023-03-31T11:04:09.178Z,6164.00
2023-03-31T11:05:09.951Z,6124.00
2023-03-31T11:06:10.409Z,6068.00
2023-03-31T11:07:10.449Z,6036.00
2023-03-31T11:08:10.480Z,6016.00
2023-03-31T11:09:10.026Z,5740.00
2023-03-31T11:10:10.239Z,5464.00
2023-03-31T11:11:10.409Z,5300.00
2023-03-31T11:12:11.276Z,4904.00
2023-03-31T11:13:10.790Z,4540.00
2023-03-31T11:14:10.976Z,4024.00
2023-03-31T11:15:11.147Z,3096.00
2023-03-31T11:16:11.532Z,2220.00
2023-03-31T11:17:12.448Z,1888.00
2023-03-31T11:18:11.717Z,1768.00
2023-03-31T11:19:11.872Z,1760.00
2023-03-31T11:20:12.041Z,1640.00
2023-03-31T11:21:12.383Z,1644.00
2023-03-31T11:22:13.411Z,1772.00
2023-03-31T11:23:12.535Z,1796.00
2023-03-31T11:24:13.914Z,1848.00
2023-03-31T11:25:12.911Z,1896.00
2023-03-31T11:26:14.914Z,1940.00
2023-03-31T11:27:13.466Z,1916.00
2023-03-31T11:28:13.374Z,1924.00
2023-03-31T11:29:13.592Z,2072.00
2023-03-31T11:30:14.418Z,3620.00
2023-03-31T11:31:13.930Z,4900.00
2023-03-31T11:32:14.527Z,5368.00
2023-03-31T11:33:14.520Z,7736.00
2023-03-31T11:34:14.364Z,8560.00
2023-03-31T11:35:14.570Z,9064.00
2023-03-31T11:36:15.454Z,9252.00
2023-03-31T11:37:14.892Z,9368.00
2023-03-31T11:38:15.094Z,9420.00
2023-03-31T11:39:15.279Z,9416.00
2023-03-31T11:40:15.445Z,9408.00
2023-03-31T11:41:15.718Z,8868.00
2023-03-31T11:42:16.345Z,7668.00
2023-03-31T11:43:16.921Z,7516.00
2023-03-31T11:44:16.089Z,8824.00
2023-03-31T11:45:17.423Z,7752.00
2023-03-31T11:46:17.048Z,6752.00
2023-03-31T11:47:16.576Z,6468.00
2023-03-31T11:48:16.791Z,6632.00
2023-03-31T11:49:16.995Z,5940.00
2023-03-31T11:50:17.200Z,5636.00
2023-03-31T11:51:18.926Z,5176.00
2023-03-31T11:52:18.418Z,4348.00
2023-03-31T11:53:19.291Z,3104.00
2023-03-31T11:54:17.925Z,1956.00
2023-03-31T11:55:18.121Z,1128.00
2023-03-31T11:56:18.284Z,772.00
2023-03-31T11:57:18.507Z,892.00
2023-03-31T11:58:18.574Z,1148.00
2023-03-31T11:59:18.745Z,1340.00
2023-03-31T12:00:18.932Z,1436.00
2023-03-31T12:01:19.113Z,1500.00
2023-03-31T12:02:19.489Z,1544.00
2023-03-31T12:03:19.516Z,1564.00
2023-03-31T12:04:20.426Z,1532.00
2023-03-31T12:05:19.840Z,1432.00
2023-03-31T12:06:20.111Z,1388.00
2023-03-31T12:07:20.795Z,1276.00
2023-03-31T12:08:20.974Z,1212.00
2023-03-31T12:09:20.507Z,1140.00
2023-03-31T12:10:20.671Z,1084.00
2023-03-31T12:11:20.939Z,1044.00
2023-03-31T12:12:21.941Z,1020.00
2023-03-31T12:13:21.210Z,1028.00
2023-03-31T12:14:21.391Z,1076.00
2023-03-31T12:15:21.559Z,1156.00
2023-03-31T12:16:21.769Z,1260.00
2023-03-31T12:17:23.038Z,1348.00
2023-03-31T12:18:22.188Z,1408.00
2023-03-31T12:19:22.352Z,1460.00
2023-03-31T12:20:23.474Z,1532.00
2023-03-31T12:21:23.476Z,1628.00
2023-03-31T12:22:22.959Z,1716.00
2023-03-31T12:23:23.800Z,1832.00
2023-03-31T12:24:23.301Z,1928.00
2023-03-31T12:25:23.995Z,2028.00
2023-03-31T12:26:24.476Z,2148.00
2023-03-31T12:27:25.434Z,2284.00
2023-03-31T12:28:23.918Z,2428.00
2023-03-31T12:29:24.976Z,2588.00
2023-03-31T12:30:24.232Z,2752.00
2023-03-31T12:31:25.032Z,2928.00
2023-03-31T12:32:25.459Z,3164.00
2023-03-31T12:33:24.702Z,3464.00
2023-03-31T12:34:24.942Z,3804.00
2023-03-31T12:35:25.082Z,4152.00
2023-03-31T12:36:25.973Z,4472.00
2023-03-31T12:37:25.388Z,4660.00
2023-03-31T12:38:26.478Z,4764.00
2023-03-31T12:39:26.728Z,4836.00
2023-03-31T12:40:26.449Z,4936.00